< < Back
Terminal Aerodrome Forecast


Current Version              Previous Versions:   1  2  3  4  5  6  7  8  9  

Terminal Aerodrome Forecast

171
FTUS42 KFFC 181100
TAFFTY
TAF
KFTY 181123Z 1812/1912 01003KT P6SM SCT006 BKN010
      TEMPO 1812/1814 6SM BR BKN006
     FM181400 04005KT P6SM SCT025
     FM181700 34006KT P6SM SCT045
     FM190500 02005KT P6SM SCT025
     FM190900 05005KT P6SM OVC010=

Latest METAR

741
SAUS70 KWBC 190700 RRG
MTRFTY
METAR KFTY 190653Z 00000KT 10SM CLR 20/18 A3003 RMK AO2 SLP159
T02000178


USA.gov is the U.S. government's official web portal to all federal, state and local government web resources and services.